Hlavní strana
METAR-TAF:

METAR-TAF

Letiště :

Albany, Georgie, Spojené státy americké

zeměpisná šířka: 31-32-08N, zeměpisná délka: 084-11-40W, výška: 60 m

Aktuální stav počasí

Zpráva byla vytvořena před 56 minutami, v 16:53 UTC
Severozápadní vítr 7 kt
Teplota 11°C
Vlhkost vzduchu 87%
Tlak 1019 hPa
Viditelnost: 2.4 km
Oblačno až skoro zataženo ve výšce 500 ft
Zataženo ve výšce 1000 ft
slabý déšť, kouřmo

METAR: KABY 151653Z 32007KT 1 1/2SM -RA BR BKN005 OVC010 11/09 A3008 RMK AO2 SLP187 P0002 T01060089

Čas: 12:49 (17:49 UTC)

Předpověď počasí

Zpráva byla vytvořena před 29 minutami, v 17:20 UTC
Předpověď platná od 15 v 18 UTC do 16 v 18 UTC
Severní vítr 8 kt
Viditelnost: 3.2 km
Zataženo ve výšce 500 ft
slabý déšť, kouřmo
Od 16 v 1200 UTC
Severní vítr 8 kt
Viditelnost: 10 km
Zataženo ve výšce 1500 ft
Od 16 v 1600 UTC
Severní vítr 7 kt
Viditelnost: 10 km
Oblačno až skoro zataženo ve výšce 3500 ft

TAF: KABY 151720Z 1518/1618 35008KT 2SM -RA BR OVC005 FM161200 35008KT P6SM OVC015 FM161600 36007KT P6SM BKN035

Stav a předpovědi počasí z více než 4 000 letišť (zprávy METAR a TAF).

Červené a žluté tečky na mapě představují dostupné meteorologické stanice.

Když kurzor umístíte na tečku, zobrazí se název stanice.

Pak kliknutím zobrazíte stav a předpověď počasí.

Chcete-li změnit mapu, kliknutím na zelené tlačítko se znaménkem +mapu přiblížíte, kliknutím na zelené tlačítko se znaménkem – mapu oddálíte a kliknutím na zelené šipky přejdete na sousední mapy.


METAR-TAF: